»·PEaware :: N505EC KBUR-KFUL

N505EC :: KBUR-KFUL

FLIGHT INFORMATION

Flight Status: Arrived
Operator: Privately registered:
United States
More flights under this callsign
Pilot: Jason S. (22976)
Aircraft: CESSNA T210 TURBO CENTURION
(T210)
More flights by this aircraft type
Origin: KBUR Bob Hope-Burbank
United States
Destination: KFUL Fullerton Mun
United States
More flights between these airports :: More routes between these airports
Route: +KEMT
File this flight plan on PilotEdge
Remarks: CAT 9
Altitude:
(Current/Filed)
3,000ft
Speed:
(Current/Filed)
150kts
Departed: 09-Feb-19 07:17 PM
Arrived: 09-Feb-19 07:35 PM
Distance/Time
Traveled:
27nm/0:18
Distance/Time
To Go:
Arrived

Flight Plot

Page will automatically refresh every two minutes.


Map Options




Map Legend


Flown Route
Filed Route
Departure Airport
Arrival Airport
Navaid (VOR, NDB)
Fix

Horizontal Profiles

Position Reports

Time Latitude Longitude Heading Altitude Ground
Speed
09-Feb-19 18:46 34.200203 -118.358745 263 722ft 0kts
09-Feb-19 18:47 34.200203 -118.358745 263 722ft 0kts
09-Feb-19 18:48 34.200203 -118.358745 263 722ft 0kts
09-Feb-19 18:49 34.200203 -118.358745 263 722ft 0kts
09-Feb-19 18:50 34.200203 -118.358745 263 722ft 0kts
09-Feb-19 18:51 34.200203 -118.358745 263 722ft 0kts
09-Feb-19 18:52 34.200203 -118.358745 263 722ft 0kts
09-Feb-19 18:53 34.200203 -118.358745 263 722ft 0kts
09-Feb-19 18:54 34.200203 -118.358745 263 722ft 0kts
09-Feb-19 18:55 34.200203 -118.358745 263 722ft 0kts
09-Feb-19 18:56 34.200203 -118.358745 263 722ft 0kts
09-Feb-19 18:57 34.200203 -118.358745 263 722ft 0kts
09-Feb-19 18:58 34.200203 -118.358745 263 722ft 0kts
09-Feb-19 18:59 34.200203 -118.358745 263 722ft 0kts
09-Feb-19 19:00 34.200203 -118.358745 263 722ft 0kts
09-Feb-19 19:01 34.200203 -118.358745 263 722ft 0kts
09-Feb-19 19:02 34.200203 -118.358745 263 722ft 0kts
09-Feb-19 19:03 34.200203 -118.358745 263 722ft 0kts
09-Feb-19 19:04 34.200203 -118.358745 263 722ft 0kts
09-Feb-19 19:05 34.200203 -118.358745 263 722ft 0kts
09-Feb-19 19:06 34.200203 -118.358745 263 722ft 0kts
09-Feb-19 19:07 34.200305 -118.358681 47 723ft 2kts
09-Feb-19 19:08 34.201363 -118.358609 348 729ft 5kts
09-Feb-19 19:09 34.203978 -118.359318 348 740ft 13kts
09-Feb-19 19:10 34.207712 -118.360348 347 758ft 13kts
09-Feb-19 19:11 34.210912 -118.361222 358 773ft 2kts
09-Feb-19 19:12 34.211110 -118.361093 60 773ft 0kts
09-Feb-19 19:13 34.211110 -118.361093 60 773ft 0kts
09-Feb-19 19:14 34.211110 -118.361093 60 773ft 0kts
09-Feb-19 19:15 34.211280 -118.360413 88 773ft 7kts
09-Feb-19 19:16 34.196543 -118.355792 164 1052ft 96kts
09-Feb-19 19:17 34.188784 -118.325616 72 1718ft 127kts
09-Feb-19 19:18 34.185846 -118.283877 106 2316ft 130kts
09-Feb-19 19:19 34.176244 -118.240183 104 2498ft 137kts
09-Feb-19 19:20 34.167130 -118.196306 104 2498ft 131kts
09-Feb-19 19:21 34.154258 -118.155899 122 2499ft 129kts
09-Feb-19 19:22 34.134257 -118.119919 124 2499ft 129kts
09-Feb-19 19:23 34.113984 -118.084110 124 2500ft 129kts
09-Feb-19 19:24 34.093683 -118.048284 124 2499ft 129kts
09-Feb-19 19:25 34.066503 -118.020542 147 2499ft 129kts
09-Feb-19 19:26 34.035873 -117.997875 148 2499ft 129kts
09-Feb-19 19:27 34.005093 -117.975244 148 2499ft 129kts
09-Feb-19 19:28 33.975291 -117.953349 148 2499ft 129kts
09-Feb-19 19:29 33.945720 -117.931691 148 2373ft 115kts
09-Feb-19 19:30 33.918823 -117.911959 148 1870ft 110kts
09-Feb-19 19:31 33.892187 -117.894163 177 1363ft 111kts
09-Feb-19 19:32 33.878444 -117.923860 261 864ft 111kts
09-Feb-19 19:33 33.876307 -117.957118 261 450ft 82kts
09-Feb-19 19:34 33.871941 -117.980210 256 94ft 24kts
09-Feb-19 19:35 33.872130 -117.981373 344 92ft 0kts
09-Feb-19 19:36 33.872130 -117.981373 344 92ft 0kts
09-Feb-19 19:37 33.872224 -117.981405 343 92ft 2kts
09-Feb-19 19:38 33.872828 -117.980565 115 93ft 3kts
09-Feb-19 19:39 33.872811 -117.980523 115 93ft 0kts

Navigation Log

Ident Type
Flight plan parsing failed, navigation log unavailable